createdAt,value
2023-02-19T00:01:35.678Z,9.03
2023-02-19T00:04:05.154Z,9.20
2023-02-19T00:06:34.011Z,9.06
2023-02-19T00:09:01.186Z,9.06
2023-02-19T00:11:30.882Z,9.06
2023-02-19T00:13:59.477Z,9.14
2023-02-19T00:16:28.679Z,9.02
2023-02-19T00:18:56.978Z,9.06
2023-02-19T00:21:24.839Z,9.18
2023-02-19T00:24:00.538Z,8.99
2023-02-19T00:26:28.072Z,9.06
2023-02-19T00:28:56.105Z,9.14
2023-02-19T00:31:30.395Z,9.17
2023-02-19T00:34:01.813Z,9.26
2023-02-19T00:36:29.673Z,9.15
2023-02-19T00:38:56.635Z,8.93
2023-02-19T00:41:24.789Z,8.92
2023-02-19T00:44:01.656Z,8.96
2023-02-19T00:46:31.915Z,8.86
2023-02-19T00:48:59.428Z,8.92
2023-02-19T00:51:29.639Z,9.00
2023-02-19T00:53:56.607Z,9.09
2023-02-19T00:56:23.305Z,9.16
2023-02-19T00:58:50.591Z,9.23
2023-02-19T01:01:18.126Z,9.32
2023-02-19T01:03:45.552Z,9.09
2023-02-19T01:06:14.537Z,8.88
2023-02-19T01:08:41.588Z,8.98
2023-02-19T01:11:09.758Z,9.09
2023-02-19T01:13:37.503Z,9.01
2023-02-19T01:16:08.794Z,8.90
2023-02-19T01:18:35.959Z,8.95
2023-02-19T01:21:08.175Z,9.11
2023-02-19T01:23:36.133Z,8.94
2023-02-19T01:26:07.837Z,9.14
2023-02-19T01:28:34.858Z,8.93
2023-02-19T01:31:07.302Z,9.11
2023-02-19T01:33:35.006Z,9.03
2023-02-19T01:36:04.607Z,9.01
2023-02-19T01:38:31.379Z,9.01
2023-02-19T01:41:00.748Z,8.96
2023-02-19T01:43:27.762Z,8.97
2023-02-19T01:45:55.160Z,9.05
2023-02-19T01:48:35.817Z,9.08
2023-02-19T01:51:12.754Z,9.22
2023-02-19T01:53:44.549Z,9.05
2023-02-19T01:56:16.016Z,8.88
2023-02-19T01:58:42.910Z,8.88
2023-02-19T02:01:10.414Z,9.00
2023-02-19T02:03:40.223Z,8.95
2023-02-19T02:06:07.337Z,8.96
2023-02-19T02:08:53.463Z,8.91
2023-02-19T02:11:20.763Z,8.79
2023-02-19T02:13:47.886Z,8.88
2023-02-19T02:16:40.362Z,9.04
2023-02-19T02:19:28.157Z,8.79
2023-02-19T02:22:39.080Z,8.88
2023-02-19T02:25:26.443Z,8.73
2023-02-19T02:28:07.971Z,8.99
2023-02-19T02:30:49.000Z,8.84
2023-02-19T02:33:27.520Z,8.86
2023-02-19T02:36:17.488Z,8.59
2023-02-19T02:38:46.164Z,8.85
2023-02-19T02:41:15.468Z,8.96
2023-02-19T02:43:42.177Z,8.95
2023-02-19T02:46:15.253Z,8.91
2023-02-19T02:49:04.135Z,8.90
2023-02-19T02:51:38.791Z,8.96
2023-02-19T02:54:26.744Z,8.85
2023-02-19T02:56:55.166Z,8.91
2023-02-19T02:59:25.277Z,8.85
2023-02-19T03:02:12.381Z,8.62
2023-02-19T03:05:19.430Z,8.59
2023-02-19T03:07:48.430Z,8.71
2023-02-19T03:10:19.506Z,8.57
2023-02-19T03:13:04.863Z,8.36
2023-02-19T03:15:55.797Z,8.73
2023-02-19T03:18:42.255Z,8.80
2023-02-19T03:21:10.245Z,8.60
2023-02-19T03:23:56.131Z,8.79
2023-02-19T03:26:25.468Z,8.63
2023-02-19T03:29:11.952Z,8.59
2023-02-19T03:31:40.446Z,8.08
2023-02-19T03:34:11.702Z,8.24
2023-02-19T03:36:46.646Z,8.36
2023-02-19T03:39:17.463Z,8.06
2023-02-19T03:41:47.010Z,7.83
2023-02-19T03:44:30.782Z,8.12
2023-02-19T03:47:04.673Z,7.97
2023-02-19T03:49:40.443Z,8.16
2023-02-19T03:52:16.609Z,8.03
2023-02-19T03:55:02.801Z,7.89
2023-02-19T03:57:44.267Z,7.83
2023-02-19T04:00:17.210Z,7.84
2023-02-19T04:02:52.721Z,7.87
2023-02-19T04:05:22.904Z,7.65
2023-02-19T04:07:53.261Z,7.72
2023-02-19T04:10:21.043Z,7.80
2023-02-19T04:12:58.078Z,7.85
2023-02-19T04:15:30.066Z,7.54
2023-02-19T04:17:59.726Z,8.00
2023-02-19T04:20:30.119Z,7.69
2023-02-19T04:22:57.735Z,7.65
2023-02-19T04:25:27.208Z,7.83
2023-02-19T04:27:53.900Z,7.56
2023-02-19T04:30:21.891Z,7.55
2023-02-19T04:32:48.625Z,7.71
2023-02-19T04:35:15.231Z,7.84
2023-02-19T04:37:41.853Z,7.79
2023-02-19T04:40:09.491Z,7.64
2023-02-19T04:42:36.053Z,7.51
2023-02-19T04:45:02.650Z,7.58
2023-02-19T04:47:29.243Z,7.54
2023-02-19T04:49:55.851Z,7.63
2023-02-19T04:52:22.457Z,7.64
2023-02-19T04:54:49.192Z,7.53
2023-02-19T04:57:15.776Z,7.45
2023-02-19T04:59:42.672Z,7.57
2023-02-19T05:02:09.295Z,7.50
2023-02-19T05:04:35.868Z,7.53
2023-02-19T05:07:02.437Z,7.69
2023-02-19T05:09:29.100Z,7.27
2023-02-19T05:11:55.646Z,7.28
2023-02-19T05:14:22.297Z,7.59
2023-02-19T05:16:48.917Z,7.53
2023-02-19T05:19:15.622Z,7.30
2023-02-19T05:21:42.171Z,7.24
2023-02-19T05:24:09.053Z,7.53
2023-02-19T05:26:36.127Z,7.66
2023-02-19T05:29:02.933Z,7.60
2023-02-19T05:31:29.546Z,7.54
2023-02-19T05:33:56.633Z,7.77
2023-02-19T05:36:23.914Z,7.75
2023-02-19T05:38:55.861Z,7.66
2023-02-19T05:41:31.600Z,7.58
2023-02-19T05:43:58.562Z,7.65
2023-02-19T05:46:27.792Z,7.39
2023-02-19T05:48:54.517Z,7.49
2023-02-19T05:51:23.710Z,7.49
2023-02-19T05:53:50.934Z,7.69
2023-02-19T05:56:26.401Z,7.54
2023-02-19T05:58:53.849Z,7.60
2023-02-19T06:01:22.290Z,7.12
2023-02-19T06:03:48.942Z,7.43
2023-02-19T06:06:17.921Z,7.46
2023-02-19T06:08:45.222Z,7.54
2023-02-19T06:11:12.154Z,7.34
2023-02-19T06:13:39.030Z,7.19
2023-02-19T06:16:07.276Z,7.39
2023-02-19T06:18:33.901Z,7.42
2023-02-19T06:21:02.139Z,7.43
2023-02-19T06:23:29.893Z,7.60
2023-02-19T06:26:06.532Z,7.65
2023-02-19T06:28:33.165Z,7.73
2023-02-19T06:30:59.681Z,7.63
2023-02-19T06:33:27.857Z,7.57
2023-02-19T06:35:54.783Z,7.38
2023-02-19T06:38:22.112Z,7.37
2023-02-19T06:40:48.770Z,7.37
2023-02-19T06:43:15.365Z,7.19
2023-02-19T06:45:41.915Z,7.43
2023-02-19T06:48:08.562Z,7.56
2023-02-19T06:50:35.110Z,7.40
2023-02-19T06:53:01.715Z,7.20
2023-02-19T06:55:28.260Z,7.51
2023-02-19T06:57:54.822Z,7.40
2023-02-19T07:00:21.565Z,7.65
2023-02-19T07:02:48.215Z,7.55
2023-02-19T07:05:14.802Z,7.54
2023-02-19T07:07:41.325Z,7.57
2023-02-19T07:10:08.118Z,7.22
2023-02-19T07:12:34.702Z,7.50
2023-02-19T07:15:01.227Z,7.49
2023-02-19T07:17:27.824Z,7.57
2023-02-19T07:19:54.524Z,7.57
2023-02-19T07:22:21.273Z,7.45
2023-02-19T07:24:48.066Z,7.44
2023-02-19T07:27:14.653Z,7.56
2023-02-19T07:29:41.203Z,7.56
2023-02-19T07:32:07.839Z,7.80
2023-02-19T07:34:34.426Z,7.64
2023-02-19T07:37:01.081Z,7.70
2023-02-19T07:39:27.687Z,7.61
2023-02-19T07:41:54.239Z,7.60
2023-02-19T07:44:20.832Z,7.77
2023-02-19T07:46:47.377Z,7.72
2023-02-19T07:49:13.941Z,7.69
2023-02-19T07:51:40.539Z,7.56
2023-02-19T07:54:08.152Z,7.52
2023-02-19T07:56:34.692Z,7.47
2023-02-19T07:59:01.442Z,7.71
2023-02-19T08:01:46.289Z,7.69
2023-02-19T08:04:14.491Z,7.68
2023-02-19T08:06:41.694Z,7.36
2023-02-19T08:09:09.003Z,7.55
2023-02-19T08:11:54.071Z,7.73
2023-02-19T08:14:24.604Z,7.70
2023-02-19T08:16:52.060Z,7.71
2023-02-19T08:19:19.526Z,7.73
2023-02-19T08:21:46.210Z,7.79
2023-02-19T08:24:12.777Z,7.98
2023-02-19T08:26:39.530Z,7.83
2023-02-19T08:29:06.551Z,7.72
2023-02-19T08:31:34.314Z,7.61
2023-02-19T08:34:00.942Z,7.66
2023-02-19T08:36:27.530Z,7.81
2023-02-19T08:38:54.233Z,7.88
2023-02-19T08:41:21.239Z,7.87
2023-02-19T08:43:47.918Z,8.00
2023-02-19T08:46:15.120Z,7.96
2023-02-19T08:48:41.682Z,7.74
2023-02-19T08:51:11.744Z,7.86
2023-02-19T08:53:40.435Z,7.81
2023-02-19T08:56:12.423Z,7.91
2023-02-19T08:58:39.737Z,7.92
2023-02-19T09:01:15.355Z,7.91
2023-02-19T09:03:42.555Z,7.89
2023-02-19T09:06:14.813Z,7.95
2023-02-19T09:08:41.532Z,7.76
2023-02-19T09:11:08.182Z,7.77
2023-02-19T09:13:34.732Z,7.87
2023-02-19T09:16:03.774Z,7.49
2023-02-19T09:18:30.545Z,7.44
2023-02-19T09:21:00.580Z,7.56
2023-02-19T09:23:27.273Z,7.43
2023-02-19T09:26:00.013Z,7.42
2023-02-19T09:28:28.078Z,7.74
2023-02-19T09:30:54.818Z,7.56
2023-02-19T09:33:21.428Z,7.19
2023-02-19T09:35:48.038Z,7.21
2023-02-19T09:38:14.629Z,7.41
2023-02-19T09:40:41.498Z,7.41
2023-02-19T09:43:11.941Z,7.45
2023-02-19T09:45:40.105Z,7.52
2023-02-19T09:48:07.091Z,7.34
2023-02-19T09:50:41.176Z,7.41
2023-02-19T09:53:27.236Z,7.51
2023-02-19T09:55:53.992Z,7.61
2023-02-19T09:58:36.222Z,7.55
2023-02-19T10:01:05.971Z,7.44
2023-02-19T10:03:39.217Z,7.74
2023-02-19T10:06:11.530Z,7.47
2023-02-19T10:08:40.365Z,7.52
2023-02-19T10:11:07.412Z,7.65
2023-02-19T10:13:48.167Z,7.79
2023-02-19T10:16:25.340Z,7.90
2023-02-19T10:18:52.722Z,7.68
2023-02-19T10:21:23.881Z,7.82
2023-02-19T10:23:57.574Z,7.53
2023-02-19T10:26:24.568Z,7.40
2023-02-19T10:28:51.223Z,7.43
2023-02-19T10:31:21.923Z,7.72
2023-02-19T10:33:56.211Z,7.51
2023-02-19T10:36:30.490Z,7.50
2023-02-19T10:38:59.942Z,7.51
2023-02-19T10:41:27.871Z,7.38
2023-02-19T10:44:00.747Z,7.30
2023-02-19T10:46:32.248Z,7.58
2023-02-19T10:49:20.447Z,7.43
2023-02-19T10:51:47.958Z,7.54
2023-02-19T10:54:20.836Z,7.52
2023-02-19T10:56:47.537Z,7.54
2023-02-19T10:59:27.340Z,7.66
2023-02-19T11:01:57.422Z,7.44
2023-02-19T11:04:26.112Z,7.43
2023-02-19T11:06:53.230Z,7.51
2023-02-19T11:09:25.234Z,7.55
2023-02-19T11:11:54.418Z,7.50
2023-02-19T11:14:24.196Z,7.63
2023-02-19T11:16:55.063Z,7.68
2023-02-19T11:19:31.230Z,7.80
2023-02-19T11:22:00.524Z,8.03
2023-02-19T11:24:34.941Z,8.05
2023-02-19T11:27:06.676Z,7.75
2023-02-19T11:29:37.158Z,7.77
2023-02-19T11:32:22.526Z,8.02
2023-02-19T11:34:49.156Z,8.06
2023-02-19T11:37:23.733Z,8.08
2023-02-19T11:39:51.858Z,8.30
2023-02-19T11:42:29.040Z,8.13
2023-02-19T11:45:11.035Z,8.18
2023-02-19T11:48:02.546Z,8.32
2023-02-19T11:50:58.504Z,8.19
2023-02-19T11:53:27.220Z,8.21
2023-02-19T11:56:23.726Z,8.18
2023-02-19T11:59:00.869Z,8.32
2023-02-19T12:01:46.061Z,8.36
2023-02-19T12:04:46.539Z,8.02
2023-02-19T12:07:31.489Z,8.22
2023-02-19T12:10:59.852Z,8.21
2023-02-19T12:14:14.461Z,8.04
2023-02-19T12:16:52.684Z,8.03
2023-02-19T12:19:34.528Z,8.19
2023-02-19T12:22:27.222Z,8.23
2023-02-19T12:25:02.713Z,8.18
2023-02-19T12:28:10.889Z,8.46
2023-02-19T12:31:11.411Z,8.57
2023-02-19T12:33:50.382Z,8.64
2023-02-19T12:36:55.563Z,8.62
2023-02-19T12:39:45.868Z,8.79
2023-02-19T12:43:03.519Z,8.75
2023-02-19T12:45:54.863Z,8.53
2023-02-19T12:48:47.419Z,8.33
2023-02-19T12:51:37.296Z,8.33
2023-02-19T12:54:15.575Z,8.41
2023-02-19T12:57:11.638Z,8.36
2023-02-19T12:59:42.054Z,8.44
2023-02-19T13:02:36.427Z,8.51
2023-02-19T13:05:06.837Z,8.24
2023-02-19T13:07:44.653Z,8.33
2023-02-19T13:10:11.270Z,8.15
2023-02-19T13:12:43.382Z,8.20
2023-02-19T13:15:15.475Z,8.48
2023-02-19T13:17:54.056Z,8.63
2023-02-19T13:20:29.756Z,8.46
2023-02-19T13:23:33.648Z,8.64
2023-02-19T13:26:21.676Z,8.08
2023-02-19T13:29:16.232Z,8.22
2023-02-19T13:32:04.061Z,8.05
2023-02-19T13:34:51.853Z,8.07
2023-02-19T13:37:19.405Z,8.00
2023-02-19T13:39:53.774Z,8.07
2023-02-19T13:42:31.168Z,9.12
2023-02-19T13:45:06.708Z,7.99
2023-02-19T13:47:50.865Z,8.00
2023-02-19T13:50:37.600Z,7.63
2023-02-19T13:53:45.219Z,7.54
2023-02-19T13:56:30.139Z,7.49
2023-02-19T13:58:58.213Z,7.62
2023-02-19T14:01:49.738Z,7.83
2023-02-19T14:04:40.084Z,8.01
2023-02-19T14:07:06.644Z,7.86
2023-02-19T14:09:36.269Z,7.69
2023-02-19T14:12:17.859Z,7.93
2023-02-19T14:14:51.674Z,7.92
2023-02-19T14:17:36.162Z,7.83
2023-02-19T14:20:05.054Z,7.55
2023-02-19T14:22:53.113Z,8.77
2023-02-19T14:25:31.974Z,8.34
2023-02-19T14:28:03.035Z,7.85
2023-02-19T14:30:32.066Z,7.54
2023-02-19T14:33:10.189Z,7.62
2023-02-19T14:35:43.833Z,7.76
2023-02-19T14:38:28.429Z,7.94
2023-02-19T14:40:55.929Z,7.77
2023-02-19T14:43:25.139Z,7.99
2023-02-19T14:45:56.757Z,7.78
2023-02-19T14:48:28.960Z,7.81
2023-02-19T14:51:02.259Z,7.81
2023-02-19T14:53:30.958Z,7.87
2023-02-19T14:55:59.486Z,7.84
2023-02-19T14:58:31.722Z,7.69
2023-02-19T15:00:58.412Z,7.63
2023-02-19T15:03:32.635Z,7.73
2023-02-19T15:06:12.708Z,7.98
2023-02-19T15:08:43.792Z,8.14
2023-02-19T15:11:17.462Z,8.11
2023-02-19T15:13:50.957Z,8.12
2023-02-19T15:16:21.299Z,8.26
2023-02-19T15:18:48.983Z,8.07
2023-02-19T15:21:30.510Z,7.73
2023-02-19T15:24:00.318Z,8.00
2023-02-19T15:26:40.496Z,8.10
2023-02-19T15:29:15.521Z,7.78
2023-02-19T15:31:51.345Z,7.76
2023-02-19T15:34:29.606Z,7.89
2023-02-19T15:37:07.884Z,7.67
2023-02-19T15:39:36.027Z,7.66
2023-02-19T15:42:05.487Z,7.96
2023-02-19T15:44:32.138Z,7.93
2023-02-19T15:47:03.108Z,8.10
2023-02-19T15:49:40.266Z,8.19
2023-02-19T15:52:16.560Z,8.22
2023-02-19T15:54:55.682Z,8.24
2023-02-19T15:57:28.096Z,7.97
2023-02-19T16:00:02.048Z,7.87
2023-02-19T16:02:28.953Z,7.64
2023-02-19T16:04:56.233Z,7.64
2023-02-19T16:07:28.571Z,7.86
2023-02-19T16:10:24.072Z,7.92
2023-02-19T16:12:58.817Z,7.64
2023-02-19T16:15:26.998Z,7.88
2023-02-19T16:17:53.927Z,7.86
2023-02-19T16:20:24.586Z,7.78
2023-02-19T16:22:52.262Z,7.82
2023-02-19T16:25:27.906Z,7.86
2023-02-19T16:27:55.349Z,7.56
2023-02-19T16:30:33.852Z,7.74
2023-02-19T16:33:22.682Z,7.48
2023-02-19T16:35:52.290Z,7.58
2023-02-19T16:38:20.692Z,7.49
2023-02-19T16:40:54.183Z,7.66
2023-02-19T16:43:25.354Z,7.83
2023-02-19T16:45:52.031Z,7.83
2023-02-19T16:48:21.061Z,7.97
2023-02-19T16:50:47.709Z,7.78
2023-02-19T16:53:24.719Z,7.79
2023-02-19T16:55:52.222Z,7.34
2023-02-19T16:58:19.165Z,7.33
2023-02-19T17:00:46.092Z,7.33
2023-02-19T17:03:17.705Z,7.18
2023-02-19T17:05:44.913Z,6.98
2023-02-19T17:08:39.395Z,7.35
2023-02-19T17:11:07.782Z,7.16
2023-02-19T17:13:34.362Z,7.41
2023-02-19T17:16:01.326Z,7.48
2023-02-19T17:18:28.015Z,7.39
2023-02-19T17:20:58.877Z,7.28
2023-02-19T17:23:25.483Z,7.40
2023-02-19T17:25:52.091Z,7.45
2023-02-19T17:28:19.033Z,7.40
2023-02-19T17:30:45.541Z,7.63
2023-02-19T17:33:12.129Z,7.72
2023-02-19T17:35:38.823Z,7.56
2023-02-19T17:38:09.505Z,7.33
2023-02-19T17:40:37.411Z,7.24
2023-02-19T17:43:05.028Z,7.28
2023-02-19T17:45:32.073Z,7.25
2023-02-19T17:47:59.418Z,7.43
2023-02-19T17:50:31.319Z,7.58
2023-02-19T17:52:58.714Z,7.53
2023-02-19T17:55:25.521Z,7.30
2023-02-19T17:57:53.180Z,7.59
2023-02-19T18:00:23.192Z,7.61
2023-02-19T18:02:50.237Z,7.58
2023-02-19T18:05:17.490Z,7.62
2023-02-19T18:07:44.985Z,7.70
2023-02-19T18:10:11.998Z,7.76
2023-02-19T18:12:39.623Z,7.63
2023-02-19T18:15:07.808Z,7.64
2023-02-19T18:17:35.447Z,7.60
2023-02-19T18:20:04.673Z,7.23
2023-02-19T18:22:32.205Z,7.05
2023-02-19T18:24:59.040Z,7.09
2023-02-19T18:27:25.652Z,7.08
2023-02-19T18:29:53.863Z,7.23
2023-02-19T18:32:22.556Z,7.24
2023-02-19T18:34:54.351Z,7.42
2023-02-19T18:37:21.864Z,7.29
2023-02-19T18:39:48.573Z,7.50
2023-02-19T18:42:15.613Z,7.58
2023-02-19T18:44:42.760Z,7.66
2023-02-19T18:47:09.773Z,7.72
2023-02-19T18:49:36.452Z,7.76
2023-02-19T18:52:03.550Z,7.73
2023-02-19T18:54:31.393Z,7.77
2023-02-19T18:57:00.874Z,7.59
2023-02-19T18:59:27.607Z,7.67
2023-02-19T19:01:54.259Z,7.75
2023-02-19T19:04:20.843Z,7.79
2023-02-19T19:06:48.931Z,7.80
2023-02-19T19:09:15.719Z,7.82
2023-02-19T19:11:44.370Z,7.49
2023-02-19T19:14:10.970Z,7.66
2023-02-19T19:16:37.876Z,7.64
2023-02-19T19:19:04.448Z,7.55
2023-02-19T19:21:31.090Z,7.71
2023-02-19T19:23:57.758Z,7.24
2023-02-19T19:26:30.293Z,7.48
2023-02-19T19:28:57.057Z,7.42
2023-02-19T19:31:25.012Z,7.02
2023-02-19T19:33:52.077Z,7.26
2023-02-19T19:36:20.908Z,7.45
2023-02-19T19:38:47.965Z,7.56
2023-02-19T19:41:16.243Z,7.65
2023-02-19T19:43:42.848Z,7.69
2023-02-19T19:46:10.534Z,7.71
2023-02-19T19:48:39.615Z,7.32
2023-02-19T19:51:06.456Z,7.57
2023-02-19T19:53:33.869Z,7.61
2023-02-19T19:56:01.397Z,7.27
2023-02-19T19:58:28.277Z,7.32
2023-02-19T20:00:55.054Z,7.52
2023-02-19T20:03:22.309Z,7.59
2023-02-19T20:05:51.988Z,7.61
2023-02-19T20:08:19.202Z,7.54
2023-02-19T20:10:46.359Z,7.47
2023-02-19T20:13:17.377Z,7.61
2023-02-19T20:15:44.043Z,7.67
2023-02-19T20:18:11.093Z,7.67
2023-02-19T20:20:37.945Z,7.73
2023-02-19T20:23:04.695Z,7.75
2023-02-19T20:25:31.413Z,7.73
2023-02-19T20:27:58.343Z,7.54
2023-02-19T20:30:25.725Z,7.65
2023-02-19T20:32:53.548Z,7.52
2023-02-19T20:35:20.470Z,7.68
2023-02-19T20:37:50.120Z,7.60
2023-02-19T20:40:19.921Z,7.69
2023-02-19T20:42:49.699Z,7.72
2023-02-19T20:45:20.362Z,7.62
2023-02-19T20:47:50.226Z,7.70
2023-02-19T20:50:26.014Z,7.62
2023-02-19T20:52:56.507Z,7.51
2023-02-19T20:55:26.167Z,7.39
2023-02-19T20:57:54.162Z,7.33
2023-02-19T21:00:21.215Z,7.44
2023-02-19T21:02:47.932Z,7.51
2023-02-19T21:05:16.092Z,7.39
2023-02-19T21:07:42.696Z,7.56
2023-02-19T21:10:09.851Z,7.60
2023-02-19T21:12:36.548Z,7.65
2023-02-19T21:15:04.512Z,7.67
2023-02-19T21:17:31.654Z,7.66
2023-02-19T21:19:58.255Z,7.65
2023-02-19T21:22:26.820Z,7.55
2023-02-19T21:24:53.752Z,7.66
2023-02-19T21:27:20.947Z,7.71
2023-02-19T21:29:47.950Z,7.71
2023-02-19T21:32:14.852Z,7.73
2023-02-19T21:34:42.467Z,7.75
2023-02-19T21:37:09.137Z,7.74
2023-02-19T21:39:35.818Z,7.75
2023-02-19T21:42:03.840Z,7.75
2023-02-19T21:44:30.424Z,7.58
2023-02-19T21:46:57.036Z,7.61
2023-02-19T21:49:24.203Z,7.69
2023-02-19T21:51:50.832Z,7.59
2023-02-19T21:54:21.611Z,7.67
2023-02-19T21:56:48.759Z,7.58
2023-02-19T21:59:15.538Z,7.45
2023-02-19T22:01:43.368Z,7.34
2023-02-19T22:04:14.161Z,7.41
2023-02-19T22:06:41.059Z,7.54
2023-02-19T22:09:08.777Z,7.56
2023-02-19T22:11:35.618Z,7.42
2023-02-19T22:14:03.039Z,7.39
2023-02-19T22:16:29.761Z,7.53
2023-02-19T22:18:58.376Z,7.55
2023-02-19T22:21:27.572Z,7.51
2023-02-19T22:23:54.868Z,7.53
2023-02-19T22:26:27.652Z,7.56
2023-02-19T22:28:54.737Z,7.37
2023-02-19T22:31:23.979Z,7.48
2023-02-19T22:33:50.845Z,7.54
2023-02-19T22:36:23.157Z,7.47
2023-02-19T22:38:50.103Z,7.48
2023-02-19T22:41:17.890Z,7.52
2023-02-19T22:43:44.790Z,7.31
2023-02-19T22:46:17.387Z,7.41
2023-02-19T22:48:44.004Z,7.46
2023-02-19T22:51:16.605Z,7.54
2023-02-19T22:53:48.252Z,7.53
2023-02-19T22:56:16.527Z,7.46
2023-02-19T22:58:43.505Z,7.14
2023-02-19T23:01:11.734Z,7.37
2023-02-19T23:03:58.844Z,7.43
2023-02-19T23:06:28.183Z,7.37
2023-02-19T23:08:56.703Z,7.44
2023-02-19T23:11:25.959Z,7.50
2023-02-19T23:13:53.366Z,7.54
2023-02-19T23:16:20.168Z,7.52
2023-02-19T23:18:46.817Z,7.15
2023-02-19T23:21:13.861Z,7.04
2023-02-19T23:23:42.426Z,6.84
2023-02-19T23:26:09.889Z,7.00
2023-02-19T23:28:36.536Z,6.94
2023-02-19T23:31:03.396Z,7.04
2023-02-19T23:33:30.000Z,6.82
2023-02-19T23:35:56.662Z,6.85
2023-02-19T23:38:23.340Z,6.95
2023-02-19T23:40:50.031Z,7.05
2023-02-19T23:43:16.629Z,7.08
2023-02-19T23:45:43.254Z,7.13
2023-02-19T23:48:10.083Z,7.02
2023-02-19T23:50:36.615Z,7.20
2023-02-19T23:53:06.222Z,6.96
2023-02-19T23:55:32.783Z,6.92
2023-02-19T23:57:59.346Z,7.15
